Time;durP1;ratioP1;P1;durP2;ratioP2;P2;SDS_P1;SDS_P2;PMS_P1;PMS_P2;Temp;Humidity;BMP_temperature;BMP_pressure;BME280_temperature;BME280_humidity;BME280_pressure;Samples;Min_cycle;Max_cycle;Signal;HPM_P1;HPM_P2
2023/06/20 00:02:02;;;;;;;6.67;5.40;;;21.20;99.90;;;;;;5007983;28;20271;-77
2023/06/20 00:04:29;;;;;;;6.40;5.23;;;21.30;99.90;;;;;;4999701;28;20653;-76
2023/06/20 00:06:56;;;;;;;7.80;7.10;;;21.30;99.90;;;;;;5005129;28;20267;-77
2023/06/20 00:09:22;;;;;;;8.17;7.47;;;21.40;99.90;;;;;;5003258;28;20671;-77
2023/06/20 00:11:49;;;;;;;7.47;6.87;;;21.40;99.90;;;;;;5006149;28;20552;-77
2023/06/20 00:14:16;;;;;;;8.27;7.67;;;21.50;99.90;;;;;;5016210;28;20282;-78
2023/06/20 00:16:43;;;;;;;5.30;4.60;;;21.50;99.90;;;;;;5017188;28;20204;-78
2023/06/20 00:19:11;;;;;;;6.07;5.10;;;21.60;99.90;;;;;;5002310;28;20554;-77
2023/06/20 00:21:39;;;;;;;5.50;4.90;;;21.60;99.90;;;;;;5012430;28;20236;-77
2023/06/20 00:24:09;;;;;;;6.77;5.93;;;21.60;99.90;;;;;;5005423;28;20217;-77
2023/06/20 00:26:37;;;;;;;10.17;9.27;;;21.50;99.90;;;;;;4999647;28;20208;-77
2023/06/20 00:29:04;;;;;;;12.20;10.57;;;21.50;99.90;;;;;;5003267;28;20256;-78
2023/06/20 00:31:32;;;;;;;9.93;7.30;;;21.40;99.90;;;;;;5009739;28;20196;-77
2023/06/20 00:33:59;;;;;;;9.60;7.60;;;21.20;99.90;;;;;;5004380;28;20231;-77
2023/06/20 00:36:27;;;;;;;11.53;8.57;;;21.00;99.90;;;;;;5010439;28;20209;-78
2023/06/20 00:38:54;;;;;;;12.80;11.50;;;20.90;99.90;;;;;;5011728;28;20204;-78
2023/06/20 00:41:21;;;;;;;10.73;9.73;;;20.70;99.90;;;;;;5007825;28;20213;-77
2023/06/20 00:43:48;;;;;;;9.80;7.60;;;20.50;99.90;;;;;;5012928;28;20347;-77
2023/06/20 00:46:17;;;;;;;9.70;7.77;;;20.30;99.90;;;;;;5013982;28;20702;-77
2023/06/20 00:48:46;;;;;;;11.10;9.83;;;20.30;99.90;;;;;;5005482;28;20185;-77
2023/06/20 00:51:13;;;;;;;12.00;10.80;;;20.20;99.90;;;;;;5012129;28;20196;-77
2023/06/20 00:53:42;;;;;;;11.53;7.53;;;20.20;99.90;;;;;;5008763;28;20270;-79
2023/06/20 00:56:10;;;;;;;9.67;8.67;;;20.10;99.90;;;;;;5006820;28;20239;-77
2023/06/20 00:58:38;;;;;;;10.57;9.47;;;20.00;99.90;;;;;;5009540;28;20189;-77
2023/06/20 01:01:05;;;;;;;9.30;8.30;;;20.00;99.90;;;;;;5011129;28;20259;-78
2023/06/20 01:03:35;;;;;;;9.10;8.07;;;20.00;99.90;;;;;;5007600;28;20625;-77
2023/06/20 01:06:13;;;;;;;11.83;10.10;;;20.00;99.90;;;;;;5005043;28;20204;-76
2023/06/20 01:08:49;;;;;;;10.87;8.97;;;19.90;99.90;;;;;;5008586;28;20200;-79
2023/06/20 01:11:24;;;;;;;8.30;7.13;;;19.90;99.90;;;;;;5004217;28;20203;-76
2023/06/20 01:14:00;;;;;;;11.30;8.47;;;19.80;99.90;;;;;;5001292;28;20227;-78
2023/06/20 01:16:36;;;;;;;10.23;9.17;;;19.80;99.90;;;;;;5005645;28;20244;-76
2023/06/20 01:19:12;;;;;;;8.90;8.00;;;19.70;99.90;;;;;;5006105;28;20207;-76
2023/06/20 01:21:45;;;;;;;10.77;9.13;;;19.70;99.90;;;;;;5003842;28;20212;-76
2023/06/20 01:24:18;;;;;;;10.13;8.17;;;19.70;99.90;;;;;;5006450;28;20219;-76
2023/06/20 01:26:50;;;;;;;13.77;12.57;;;19.60;99.90;;;;;;5004878;28;20208;-79
2023/06/20 01:29:21;;;;;;;10.40;7.47;;;19.60;99.90;;;;;;5001046;28;20274;-78
2023/06/20 01:31:53;;;;;;;7.67;6.87;;;19.60;99.90;;;;;;5011625;28;20207;-78
2023/06/20 01:34:23;;;;;;;8.73;7.17;;;19.50;99.90;;;;;;5000043;28;20227;-77
2023/06/20 01:36:56;;;;;;;20.47;7.20;;;19.50;99.90;;;;;;5002309;28;20224;-77
2023/06/20 01:39:27;;;;;;;7.97;6.37;;;19.50;99.90;;;;;;5007347;28;20214;-75
2023/06/20 01:41:58;;;;;;;7.70;6.87;;;19.50;99.90;;;;;;5004671;28;20695;-76
2023/06/20 01:44:27;;;;;;;8.10;6.90;;;19.50;99.90;;;;;;5000470;28;20295;-78
2023/06/20 01:46:57;;;;;;;8.00;6.63;;;19.40;99.90;;;;;;5008226;28;20702;-76
2023/06/20 01:49:26;;;;;;;8.80;7.93;;;19.40;99.90;;;;;;5010655;28;20207;-79
2023/06/20 01:51:55;;;;;;;9.20;8.40;;;19.50;99.90;;;;;;5008715;28;20234;-78
2023/06/20 01:54:28;;;;;;;9.50;8.60;;;19.40;99.90;;;;;;5006521;28;20232;-76
2023/06/20 01:56:57;;;;;;;10.03;9.07;;;19.40;99.90;;;;;;5001676;28;20296;-77
2023/06/20 01:59:25;;;;;;;9.50;8.60;;;19.40;99.90;;;;;;5004452;28;20202;-78
2023/06/20 02:01:53;;;;;;;8.60;7.80;;;19.40;99.90;;;;;;5009804;28;20219;-76
2023/06/20 02:04:22;;;;;;;6.70;5.53;;;19.40;99.90;;;;;;4999331;28;20224;-79
2023/06/20 02:06:50;;;;;;;6.87;5.47;;;19.40;99.90;;;;;;5010836;28;20257;-78
2023/06/20 02:09:17;;;;;;;6.73;5.47;;;19.30;99.90;;;;;;5008632;28;20211;-77
2023/06/20 02:11:47;;;;;;;6.43;5.80;;;19.30;99.90;;;;;;5000823;28;20226;-79
2023/06/20 02:14:15;;;;;;;5.50;5.00;;;19.30;99.90;;;;;;5008047;28;20271;-77
2023/06/20 02:16:43;;;;;;;6.20;4.47;;;19.30;99.90;;;;;;5006538;28;20199;-77
2023/06/20 02:19:10;;;;;;;5.67;5.07;;;19.30;99.90;;;;;;5009131;28;20224;-77
2023/06/20 02:21:42;;;;;;;5.13;4.63;;;19.30;99.90;;;;;;5012068;28;20219;-78
2023/06/20 02:24:12;;;;;;;4.57;4.17;;;19.30;99.90;;;;;;5005321;28;20602;-77
2023/06/20 02:26:42;;;;;;;5.27;4.77;;;19.20;99.90;;;;;;5004767;28;20231;-78
2023/06/20 02:29:12;;;;;;;4.90;4.40;;;19.20;99.90;;;;;;5004273;28;20200;-78
2023/06/20 02:31:41;;;;;;;4.43;4.10;;;19.20;99.90;;;;;;4999145;28;20255;-78
2023/06/20 02:34:13;;;;;;;5.10;4.30;;;19.20;99.90;;;;;;5002598;28;20224;-78
2023/06/20 02:36:43;;;;;;;5.17;4.33;;;19.10;99.90;;;;;;5008474;28;20214;-78
2023/06/20 02:39:10;;;;;;;7.93;7.23;;;19.10;99.90;;;;;;5008896;28;20204;-78
2023/06/20 02:41:37;;;;;;;8.17;7.57;;;19.10;99.90;;;;;;5002386;28;20223;-80
2023/06/20 02:44:04;;;;;;;9.33;8.63;;;19.10;99.90;;;;;;5005044;28;20266;-78
2023/06/20 02:46:41;;;;;;;9.07;8.37;;;19.00;99.90;;;;;;5011911;28;20210;-78
2023/06/20 02:49:19;;;;;;;8.70;8.00;;;19.00;99.90;;;;;;5012495;28;20199;-78
2023/06/20 02:52:04;;;;;;;8.03;7.43;;;19.00;99.90;;;;;;4995732;28;20694;-78
2023/06/20 02:54:39;;;;;;;8.00;7.40;;;19.00;99.90;;;;;;5004412;28;20568;-79
2023/06/20 02:57:11;;;;;;;4.00;3.67;;;19.00;99.90;;;;;;5000290;28;20211;-78
2023/06/20 02:59:43;;;;;;;4.90;4.27;;;19.00;99.90;;;;;;5009859;28;20230;-78
2023/06/20 03:02:13;;;;;;;9.07;8.47;;;19.00;99.90;;;;;;5012848;28;20270;-77
2023/06/20 03:04:42;;;;;;;8.30;7.70;;;18.90;99.90;;;;;;4993630;28;20854;-77
2023/06/20 03:07:09;;;;;;;7.40;6.70;;;19.00;99.90;;;;;;5006491;28;20294;-77
2023/06/20 03:09:37;;;;;;;8.20;7.60;;;19.00;99.90;;;;;;5011414;28;20269;-77
2023/06/20 03:12:06;;;;;;;8.40;7.80;;;19.00;99.90;;;;;;4994283;28;20824;-77
2023/06/20 03:14:33;;;;;;;8.67;8.00;;;18.90;99.90;;;;;;5008787;28;20226;-77
2023/06/20 03:17:02;;;;;;;9.37;8.57;;;18.90;99.90;;;;;;5010544;28;20253;-79
2023/06/20 03:19:32;;;;;;;8.60;8.00;;;18.90;99.90;;;;;;5000954;28;20223;-77
2023/06/20 03:22:01;;;;;;;8.53;7.93;;;18.90;99.90;;;;;;4996782;28;20676;-78
2023/06/20 03:24:28;;;;;;;8.90;8.20;;;18.90;99.90;;;;;;5008928;28;20224;-78
2023/06/20 03:26:55;;;;;;;8.93;8.13;;;18.90;99.90;;;;;;5008316;28;20585;-78
2023/06/20 03:29:21;;;;;;;7.97;7.37;;;18.90;99.90;;;;;;5003039;28;20768;-78
2023/06/20 03:31:48;;;;;;;8.17;7.57;;;18.90;99.90;;;;;;4999781;28;20197;-78
2023/06/20 03:34:15;;;;;;;9.23;8.57;;;18.90;99.90;;;;;;5008306;28;20656;-78
2023/06/20 03:36:43;;;;;;;8.23;7.70;;;18.90;99.90;;;;;;5007437;28;20658;-78
2023/06/20 03:39:11;;;;;;;8.67;8.10;;;18.90;99.90;;;;;;5006497;28;20958;-79
2023/06/20 03:41:38;;;;;;;9.17;8.57;;;18.90;99.90;;;;;;5003593;28;20195;-78
2023/06/20 03:44:05;;;;;;;9.07;8.43;;;18.90;99.90;;;;;;5007134;28;20224;-79
2023/06/20 03:46:32;;;;;;;9.30;8.60;;;18.90;99.90;;;;;;5005654;28;20203;-78
2023/06/20 03:49:00;;;;;;;9.47;8.87;;;18.90;99.90;;;;;;5010445;28;20200;-79
2023/06/20 03:51:27;;;;;;;9.90;9.20;;;18.80;99.90;;;;;;4999000;28;20710;-79
2023/06/20 03:53:55;;;;;;;10.13;9.43;;;18.80;99.90;;;;;;5003644;28;20227;-78
2023/06/20 03:56:22;;;;;;;9.97;9.23;;;18.80;99.90;;;;;;5003156;28;20757;-79
2023/06/20 03:58:49;;;;;;;9.40;8.60;;;18.70;99.90;;;;;;5007228;28;20195;-79
2023/06/20 04:01:17;;;;;;;11.13;10.23;;;18.70;99.90;;;;;;5005394;28;20195;-79
2023/06/20 04:03:44;;;;;;;9.43;8.73;;;18.70;99.90;;;;;;5013400;28;20777;-80
2023/06/20 04:06:10;;;;;;;9.80;9.10;;;18.70;99.90;;;;;;5005918;28;20235;-79
2023/06/20 04:08:39;;;;;;;7.70;6.50;;;18.70;99.90;;;;;;5006495;28;20204;-80
2023/06/20 04:11:07;;;;;;;7.13;6.53;;;18.70;99.90;;;;;;5000510;28;20616;-79
2023/06/20 04:13:33;;;;;;;7.47;6.77;;;18.80;99.90;;;;;;5004303;28;20668;-79
2023/06/20 04:16:01;;;;;;;8.77;7.97;;;18.80;99.90;;;;;;5002270;28;20299;-80
2023/06/20 04:18:27;;;;;;;10.93;10.13;;;18.80;99.90;;;;;;5003369;28;20244;-80
2023/06/20 04:20:56;;;;;;;6.23;5.63;;;18.90;99.90;;;;;;5001739;28;20207;-80
2023/06/20 04:23:23;;;;;;;5.50;5.00;;;18.90;99.90;;;;;;5006211;28;20234;-80
2023/06/20 04:25:50;;;;;;;5.90;5.27;;;19.00;99.90;;;;;;5006024;28;20223;-79
2023/06/20 04:28:18;;;;;;;6.03;5.00;;;19.00;99.90;;;;;;5010187;28;20594;-81
2023/06/20 04:30:55;;;;;;;5.67;4.97;;;19.20;99.90;;;;;;5007519;28;20227;-78
2023/06/20 04:33:23;;;;;;;9.30;8.50;;;19.30;99.90;;;;;;5008635;28;20231;-79
2023/06/20 04:35:52;;;;;;;7.73;7.03;;;19.40;99.90;;;;;;4998543;28;20230;-79
2023/06/20 04:38:19;;;;;;;6.83;5.60;;;19.50;99.90;;;;;;5006588;28;20196;-81
2023/06/20 04:40:46;;;;;;;6.70;6.07;;;19.70;99.90;;;;;;5010973;28;20203;-78
2023/06/20 04:43:13;;;;;;;8.00;7.27;;;19.80;99.90;;;;;;4999900;28;20699;-81
2023/06/20 04:45:41;;;;;;;7.80;7.10;;;19.90;99.90;;;;;;4998474;28;20251;-80
2023/06/20 04:48:09;;;;;;;7.70;7.00;;;20.10;99.90;;;;;;5006713;28;20203;-80
2023/06/20 04:50:37;;;;;;;7.17;5.50;;;20.30;99.90;;;;;;5007709;28;20198;-80
2023/06/20 04:53:04;;;;;;;6.17;5.57;;;20.40;99.90;;;;;;5007525;28;20196;-79
2023/06/20 04:55:32;;;;;;;6.17;5.47;;;20.70;99.90;;;;;;5006692;28;20692;-80
2023/06/20 04:57:58;;;;;;;5.37;4.87;;;20.80;99.90;;;;;;5001303;28;20201;-80
2023/06/20 05:00:27;;;;;;;8.93;8.23;;;21.00;99.90;;;;;;5011824;28;20263;-80
2023/06/20 05:02:57;;;;;;;7.63;7.07;;;21.10;99.90;;;;;;5004264;28;20224;-80
2023/06/20 05:05:24;;;;;;;7.80;6.73;;;21.20;99.90;;;;;;5008104;28;20316;-80
2023/06/20 05:07:51;;;;;;;8.03;7.37;;;21.30;99.90;;;;;;5006472;28;20617;-79
2023/06/20 05:10:18;;;;;;;7.63;6.83;;;21.40;99.90;;;;;;5006500;28;20205;-79
2023/06/20 05:12:44;;;;;;;10.00;9.30;;;21.60;99.90;;;;;;5005204;28;20200;-79
2023/06/20 05:15:11;;;;;;;7.67;6.83;;;21.80;99.90;;;;;;5006594;28;20274;-78
2023/06/20 05:17:38;;;;;;;6.97;5.27;;;22.20;99.90;;;;;;5001867;28;20209;-81
2023/06/20 05:20:08;;;;;;;5.50;5.00;;;22.40;99.90;;;;;;5001113;28;20276;-79
2023/06/20 05:22:35;;;;;;;5.87;4.77;;;22.70;99.90;;;;;;5009801;28;20225;-80
2023/06/20 05:25:02;;;;;;;6.53;5.13;;;22.80;99.90;;;;;;5003508;28;20221;-79
2023/06/20 05:27:28;;;;;;;5.37;4.87;;;22.80;99.90;;;;;;5004903;28;20216;-78
2023/06/20 05:29:55;;;;;;;6.83;6.10;;;22.70;99.90;;;;;;4998301;28;20208;-79
2023/06/20 05:32:22;;;;;;;6.03;5.10;;;22.60;99.90;;;;;;5009986;28;20267;-78
2023/06/20 05:34:49;;;;;;;7.67;6.97;;;22.60;99.90;;;;;;4998836;28;20602;-78
2023/06/20 05:37:17;;;;;;;10.37;9.60;;;22.70;99.90;;;;;;4999349;28;20236;-78
2023/06/20 05:39:44;;;;;;;9.33;8.50;;;22.80;99.90;;;;;;5002261;28;20196;-80
2023/06/20 05:42:10;;;;;;;10.90;10.00;;;23.20;99.90;;;;;;5003145;28;20288;-78
2023/06/20 05:44:37;;;;;;;9.13;8.43;;;23.70;99.90;;;;;;5003931;28;20683;-81
2023/06/20 05:47:05;;;;;;;8.77;8.10;;;24.30;99.90;;;;;;5007836;28;20244;-81
2023/06/20 05:49:32;;;;;;;8.60;8.00;;;24.90;99.90;;;;;;4999575;28;20590;-79
2023/06/20 05:51:58;;;;;;;9.50;8.80;;;25.40;99.90;;;;;;5008955;28;20201;-79
2023/06/20 05:54:27;;;;;;;8.50;7.70;;;25.90;99.90;;;;;;5000310;28;20251;-78
2023/06/20 05:56:55;;;;;;;8.77;8.07;;;26.20;99.90;;;;;;5003797;28;20198;-79
2023/06/20 05:59:22;;;;;;;8.13;7.53;;;26.40;99.90;;;;;;5003459;28;20239;-79
2023/06/20 06:01:49;;;;;;;8.50;7.60;;;26.70;99.90;;;;;;5001658;28;20228;-79
2023/06/20 06:04:16;;;;;;;8.40;7.60;;;26.90;99.90;;;;;;5003511;28;20267;-79
2023/06/20 06:06:43;;;;;;;8.40;7.60;;;27.30;99.90;;;;;;5001841;28;20247;-79
2023/06/20 06:09:10;;;;;;;8.53;7.37;;;27.40;99.90;;;;;;5005519;28;20207;-79
2023/06/20 06:11:39;;;;;;;9.07;8.23;;;27.80;99.90;;;;;;5001701;28;20215;-79
2023/06/20 06:14:06;;;;;;;7.93;7.33;;;27.90;99.90;;;;;;4995644;28;20216;-79
2023/06/20 06:16:33;;;;;;;8.30;7.50;;;28.10;99.90;;;;;;5005766;28;20235;-79
2023/06/20 06:19:00;;;;;;;8.00;7.27;;;28.20;99.90;;;;;;5001961;28;20200;-79
2023/06/20 06:21:27;;;;;;;8.27;7.57;;;28.30;99.90;;;;;;5005759;28;20220;-79
2023/06/20 06:23:54;;;;;;;8.07;7.37;;;28.60;99.90;;;;;;4998673;28;20224;-79
2023/06/20 06:26:21;;;;;;;8.27;7.47;;;28.40;99.90;;;;;;5001623;28;20197;-79
2023/06/20 06:28:49;;;;;;;7.73;7.03;;;28.30;99.90;;;;;;4996978;28;20263;-78
2023/06/20 06:31:24;;;;;;;8.13;7.33;;;28.30;99.90;;;;;;5004451;28;20193;-79
2023/06/20 06:33:51;;;;;;;8.07;6.90;;;28.30;99.90;;;;;;5007710;28;20212;-79
2023/06/20 06:36:18;;;;;;;8.10;7.40;;;28.60;99.90;;;;;;4997736;28;20224;-78
2023/06/20 06:38:48;;;;;;;8.03;7.33;;;28.70;99.90;;;;;;4996383;28;20727;-79
2023/06/20 06:41:15;;;;;;;8.30;7.50;;;28.90;99.90;;;;;;5003452;28;20197;-79
2023/06/20 06:43:42;;;;;;;7.87;7.07;;;28.80;99.90;;;;;;5001679;28;20311;-79
2023/06/20 06:46:12;;;;;;;8.10;7.30;;;29.00;99.90;;;;;;4999983;28;20223;-79
2023/06/20 06:48:39;;;;;;;8.10;7.40;;;29.20;99.90;;;;;;5007474;28;20304;-79
2023/06/20 06:51:06;;;;;;;8.30;7.60;;;29.20;99.90;;;;;;4999174;28;20668;-79
2023/06/20 06:53:33;;;;;;;7.77;7.17;;;29.30;99.90;;;;;;5007277;28;20204;-77
2023/06/20 06:56:00;;;;;;;7.50;6.90;;;29.40;99.90;;;;;;5005900;28;20260;-79
2023/06/20 06:58:27;;;;;;;7.67;7.07;;;29.60;99.90;;;;;;5009092;28;20263;-79
2023/06/20 07:00:54;;;;;;;7.80;7.13;;;29.70;99.90;;;;;;5007274;28;20223;-79
2023/06/20 07:03:22;;;;;;;7.87;7.20;;;29.80;99.90;;;;;;5004645;28;20245;-79
2023/06/20 07:05:48;;;;;;;7.03;6.47;;;29.80;99.90;;;;;;5011172;28;20254;-77
2023/06/20 07:08:15;;;;;;;8.57;7.63;;;29.70;99.90;;;;;;5006700;28;20616;-79
2023/06/20 07:10:42;;;;;;;8.53;7.10;;;29.80;99.90;;;;;;5002222;28;20206;-77
2023/06/20 07:13:09;;;;;;;7.83;7.03;;;29.90;99.90;;;;;;5016867;28;20658;-79
2023/06/20 07:15:35;;;;;;;8.13;7.50;;;29.90;99.90;;;;;;5011383;28;20765;-78
2023/06/20 07:18:02;;;;;;;8.53;7.27;;;30.00;99.90;;;;;;5022154;28;20206;-80
2023/06/20 07:20:30;;;;;;;7.93;7.13;;;30.10;99.90;;;;;;5013203;28;20200;-81
2023/06/20 07:22:57;;;;;;;7.63;6.90;;;30.00;99.90;;;;;;4998064;28;20315;-79
2023/06/20 07:25:24;;;;;;;11.50;7.07;;;30.00;99.90;;;;;;4999443;28;20220;-79
2023/06/20 07:27:51;;;;;;;8.17;7.40;;;29.80;99.90;;;;;;5003013;28;20196;-79
2023/06/20 07:30:18;;;;;;;10.00;7.70;;;29.80;99.90;;;;;;5014567;28;20288;-79
2023/06/20 07:32:44;;;;;;;8.97;7.30;;;29.90;99.90;;;;;;4998529;28;20247;-79
2023/06/20 07:35:11;;;;;;;7.73;7.00;;;29.90;99.90;;;;;;5006642;28;20227;-79
2023/06/20 07:37:40;;;;;;;7.97;7.20;;;29.90;99.90;;;;;;5003205;28;20208;-79
2023/06/20 07:40:08;;;;;;;7.53;6.90;;;29.80;99.90;;;;;;5005583;28;20201;-79
2023/06/20 07:42:35;;;;;;;7.50;6.90;;;29.80;99.90;;;;;;5012762;28;20266;-79
2023/06/20 07:45:02;;;;;;;7.90;7.20;;;29.90;99.90;;;;;;5002218;28;20795;-79
2023/06/20 07:47:28;;;;;;;9.00;8.10;;;29.90;99.90;;;;;;5009583;28;20477;-79
2023/06/20 07:49:55;;;;;;;8.47;7.20;;;29.90;99.90;;;;;;5007334;28;20192;-79
2023/06/20 07:52:22;;;;;;;8.47;7.50;;;30.00;99.90;;;;;;5006813;28;20278;-81
2023/06/20 07:54:50;;;;;;;8.13;7.33;;;29.90;99.90;;;;;;5007028;28;20217;-79
2023/06/20 07:57:17;;;;;;;8.03;7.30;;;29.90;99.90;;;;;;5012079;28;20227;-77
2023/06/20 07:59:44;;;;;;;10.90;7.50;;;30.00;99.90;;;;;;5012876;28;20260;-77
2023/06/20 08:02:11;;;;;;;8.50;7.60;;;29.80;99.90;;;;;;4998518;28;20260;-76
2023/06/20 08:04:37;;;;;;;8.47;7.67;;;30.00;99.90;;;;;;5002887;28;20631;-77
2023/06/20 08:07:04;;;;;;;9.77;7.60;;;29.90;99.90;;;;;;5009486;28;20231;-77
2023/06/20 08:09:31;;;;;;;7.70;7.10;;;29.80;99.90;;;;;;5006002;28;20671;-77
2023/06/20 08:11:59;;;;;;;7.87;7.17;;;29.60;99.90;;;;;;5004586;28;20288;-77
2023/06/20 08:14:26;;;;;;;10.00;7.73;;;29.50;99.90;;;;;;5004876;28;20217;-77
2023/06/20 08:16:53;;;;;;;8.17;7.47;;;30.00;99.90;;;;;;5005370;28;20743;-76
2023/06/20 08:19:19;;;;;;;8.57;7.70;;;30.30;99.90;;;;;;5008750;28;20668;-77
2023/06/20 08:21:46;;;;;;;8.63;7.80;;;30.60;99.90;;;;;;4997766;28;20819;-76
2023/06/20 08:24:16;;;;;;;8.40;7.60;;;30.90;99.90;;;;;;5006894;28;20283;-81
2023/06/20 08:26:43;;;;;;;8.73;7.17;;;31.20;99.90;;;;;;5001119;28;20205;-81
2023/06/20 08:29:11;;;;;;;8.43;7.63;;;31.50;99.90;;;;;;5010869;28;20197;-81
2023/06/20 08:31:38;;;;;;;8.52;7.68;;;31.80;99.90;;;;;;5008723;28;20200;-80
2023/06/20 08:34:05;;;;;;;7.80;7.20;;;31.60;99.90;;;;;;5006614;28;20271;-78
2023/06/20 08:36:33;;;;;;;8.80;7.32;;;31.70;99.90;;;;;;5001023;28;20197;-79
2023/06/20 08:39:00;;;;;;;9.18;7.15;;;31.70;99.90;;;;;;5005016;28;20305;-78
2023/06/20 08:41:27;;;;;;;8.45;7.53;;;31.80;99.90;;;;;;5000951;28;20283;-78
2023/06/20 08:43:54;;;;;;;9.55;7.50;;;31.80;99.90;;;;;;4997757;28;20225;-78
2023/06/20 08:46:24;;;;;;;7.80;7.15;;;32.00;99.90;;;;;;5001675;28;20193;-79
2023/06/20 08:48:51;;;;;;;8.48;7.68;;;31.90;99.90;;;;;;5003907;28;20252;-78
2023/06/20 08:51:21;;;;;;;8.60;7.43;;;32.10;99.90;;;;;;5007744;28;20745;-79
2023/06/20 08:53:49;;;;;;;10.27;7.82;;;32.20;99.90;;;;;;5000210;28;20229;-78
2023/06/20 08:56:18;;;;;;;8.13;7.35;;;32.30;99.90;;;;;;5005189;28;20255;-79
2023/06/20 08:58:45;;;;;;;9.65;7.30;;;32.70;99.90;;;;;;5001096;28;20762;-79
2023/06/20 09:01:12;;;;;;;8.00;7.20;;;32.70;99.90;;;;;;5003018;28;20284;-79
2023/06/20 09:03:40;;;;;;;11.38;7.80;;;32.70;99.90;;;;;;5000545;28;20225;-78
2023/06/20 09:06:11;;;;;;;9.20;7.43;;;32.80;99.90;;;;;;5000541;28;20209;-80
2023/06/20 09:08:39;;;;;;;10.02;7.50;;;33.00;99.90;;;;;;5009170;28;20201;-78
2023/06/20 09:11:07;;;;;;;8.43;7.63;;;32.90;99.90;;;;;;5003708;28;20196;-79
2023/06/20 09:13:34;;;;;;;9.50;7.43;;;33.20;99.90;;;;;;5007719;28;20200;-78
2023/06/20 09:16:06;;;;;;;9.48;7.47;;;33.00;99.90;;;;;;5007812;28;20244;-79
2023/06/20 09:18:34;;;;;;;8.13;7.32;;;33.00;99.90;;;;;;5007130;28;20263;-79
2023/06/20 09:21:03;;;;;;;7.72;7.03;;;33.20;99.90;;;;;;5001035;28;20205;-79
2023/06/20 09:23:30;;;;;;;7.85;7.18;;;33.40;99.90;;;;;;5009540;28;22085;-79
2023/06/20 09:25:58;;;;;;;7.65;6.97;;;33.50;99.90;;;;;;5001245;28;20209;-79
2023/06/20 09:28:33;;;;;;;7.65;6.95;;;33.80;99.90;;;;;;5006526;28;20197;-79
2023/06/20 09:30:59;;;;;;;8.32;7.57;;;34.00;99.90;;;;;;5000473;28;20201;-79
2023/06/20 09:33:26;;;;;;;8.30;7.43;;;34.10;99.90;;;;;;5009906;28;20909;-78
2023/06/20 09:35:53;;;;;;;10.25;7.10;;;33.90;99.90;;;;;;4994446;28;20201;-79
2023/06/20 09:38:21;;;;;;;8.55;7.50;;;33.90;99.90;;;;;;4998139;28;20280;-78
2023/06/20 09:40:48;;;;;;;8.02;7.10;;;34.20;99.90;;;;;;5004525;28;20559;-78
2023/06/20 09:43:15;;;;;;;8.32;7.55;;;34.50;99.90;;;;;;4997501;28;20288;-78
2023/06/20 09:45:42;;;;;;;8.00;7.05;;;34.50;99.90;;;;;;5005263;28;20266;-79
2023/06/20 09:48:09;;;;;;;8.35;7.15;;;34.10;99.90;;;;;;4994869;28;20596;-78
2023/06/20 09:50:39;;;;;;;8.48;7.50;;;34.10;97.20;;;;;;5001348;28;20224;-78
2023/06/20 09:53:17;;;;;;;7.78;7.07;;;34.10;97.50;;;;;;4998432;28;20292;-78
2023/06/20 09:55:45;;;;;;;7.80;7.10;;;34.30;98.60;;;;;;5002454;28;20222;-80
2023/06/20 09:58:13;;;;;;;7.82;7.03;;;34.60;97.50;;;;;;4997594;28;20248;-79
2023/06/20 10:00:40;;;;;;;7.40;6.70;;;34.70;95.20;;;;;;4998617;28;20637;-79
2023/06/20 10:03:09;;;;;;;7.38;6.60;;;34.90;96.00;;;;;;5000307;28;20288;-79
2023/06/20 10:05:37;;;;;;;8.35;7.40;;;34.80;92.30;;;;;;4996044;28;20630;-79
2023/06/20 10:08:04;;;;;;;7.32;6.63;;;34.40;92.40;;;;;;5008322;28;20227;-79
2023/06/20 10:10:31;;;;;;;7.95;7.15;;;34.40;94.00;;;;;;4994309;28;20201;-79
2023/06/20 10:13:00;;;;;;;7.93;7.13;;;34.60;94.70;;;;;;5001982;28;20216;-79
2023/06/20 10:15:27;;;;;;;8.32;6.95;;;34.80;96.10;;;;;;5002845;28;20280;-79
2023/06/20 10:17:54;;;;;;;8.60;6.75;;;34.80;94.70;;;;;;5001668;28;20217;-79
2023/06/20 10:20:26;;;;;;;7.47;6.63;;;35.00;94.20;;;;;;5001604;28;20255;-79
2023/06/20 10:22:58;;;;;;;7.40;6.70;;;35.10;95.20;;;;;;5000422;28;20733;-79
2023/06/20 10:25:26;;;;;;;7.22;6.30;;;35.00;94.90;;;;;;4999075;28;20231;-77
2023/06/20 10:28:02;;;;;;;9.23;6.82;;;34.70;93.30;;;;;;5003413;28;20189;-79
2023/06/20 10:30:58;;;;;;;7.38;6.68;;;34.50;93.70;;;;;;4998043;28;20278;-79
2023/06/20 10:33:25;;;;;;;7.45;6.75;;;34.40;93.50;;;;;;5007128;28;20197;-79
2023/06/20 10:35:54;;;;;;;7.95;6.53;;;34.60;92.90;;;;;;5000466;28;20197;-79
2023/06/20 10:38:21;;;;;;;7.53;6.93;;;34.70;93.40;;;;;;5004378;28;20204;-79
2023/06/20 10:40:48;;;;;;;8.43;6.63;;;34.20;93.00;;;;;;5002098;28;20204;-79
2023/06/20 10:43:22;;;;;;;7.57;6.82;;;34.10;93.90;;;;;;5001796;28;20288;-79
2023/06/20 10:45:53;;;;;;;8.07;6.97;;;34.20;93.70;;;;;;4999538;28;20255;-79
2023/06/20 10:48:20;;;;;;;11.40;7.40;;;34.10;92.30;;;;;;4999640;28;20208;-78
2023/06/20 10:50:47;;;;;;;7.57;6.88;;;33.90;92.60;;;;;;5004935;28;20853;-79
2023/06/20 10:53:15;;;;;;;7.70;7.00;;;33.90;93.50;;;;;;5002084;28;20203;-79
2023/06/20 10:55:42;;;;;;;8.15;7.22;;;33.70;93.90;;;;;;5003287;28;20796;-79
2023/06/20 10:58:09;;;;;;;8.00;7.18;;;33.70;93.90;;;;;;5000964;28;20738;-78
2023/06/20 11:00:37;;;;;;;8.30;7.60;;;33.70;94.30;;;;;;5002727;28;20202;-79
2023/06/20 11:03:04;;;;;;;7.65;6.90;;;33.80;93.70;;;;;;4998219;28;20304;-79
2023/06/20 11:05:30;;;;;;;7.80;7.05;;;33.80;94.60;;;;;;5001042;28;20229;-79
2023/06/20 11:07:59;;;;;;;8.00;7.10;;;33.70;95.00;;;;;;5002071;28;20284;-79
2023/06/20 11:10:28;;;;;;;7.68;6.97;;;33.80;93.90;;;;;;4998075;28;20279;-78
2023/06/20 11:12:56;;;;;;;9.68;7.57;;;33.50;92.90;;;;;;5004787;28;20255;-82
2023/06/20 11:15:28;;;;;;;8.82;7.95;;;33.50;94.50;;;;;;5007825;28;20716;-79
2023/06/20 11:17:57;;;;;;;8.18;7.47;;;33.40;94.10;;;;;;5003405;28;20205;-78
2023/06/20 11:20:25;;;;;;;7.90;7.30;;;33.50;94.30;;;;;;5008051;28;20713;-81
2023/06/20 11:22:54;;;;;;;8.65;7.90;;;33.60;94.10;;;;;;5003182;28;20201;-79
2023/06/20 11:25:25;;;;;;;7.85;7.15;;;33.40;93.90;;;;;;4995424;28;20317;-80
2023/06/20 11:27:52;;;;;;;7.80;7.10;;;33.40;93.20;;;;;;5001396;28;20201;-79
2023/06/20 11:30:29;;;;;;;7.43;6.82;;;33.50;93.60;;;;;;5000716;28;20223;-78
2023/06/20 11:33:06;;;;;;;7.38;6.85;;;33.80;92.80;;;;;;5002004;28;20207;-79
2023/06/20 11:35:53;;;;;;;7.97;7.03;;;33.90;92.90;;;;;;5000241;28;20320;-80
2023/06/20 11:38:22;;;;;;;7.90;7.20;;;33.70;91.60;;;;;;5003311;28;20556;-79
2023/06/20 11:40:59;;;;;;;8.80;7.38;;;33.70;92.40;;;;;;5000026;28;20228;-80
2023/06/20 11:43:27;;;;;;;8.45;7.40;;;33.70;91.40;;;;;;4999472;28;20279;-80
2023/06/20 11:46:01;;;;;;;10.43;8.07;;;33.40;90.80;;;;;;4999980;28;20272;-79
2023/06/20 11:48:30;;;;;;;8.27;7.53;;;33.40;91.30;;;;;;5004273;28;20391;-79
2023/06/20 11:50:59;;;;;;;8.15;7.35;;;33.30;91.00;;;;;;5002509;28;20239;-79
2023/06/20 11:53:28;;;;;;;8.80;7.72;;;33.40;90.90;;;;;;4998544;28;20684;-78
2023/06/20 11:55:57;;;;;;;8.68;7.68;;;33.40;88.60;;;;;;5000341;28;20196;-79
2023/06/20 11:58:24;;;;;;;9.05;8.15;;;33.40;91.20;;;;;;5005884;28;20228;-79
2023/06/20 12:01:09;;;;;;;8.30;7.50;;;33.40;90.70;;;;;;5010090;28;20196;-79
2023/06/20 12:03:39;;;;;;;8.80;8.00;;;33.40;91.50;;;;;;5012349;28;20196;-79
2023/06/20 12:06:27;;;;;;;10.77;8.60;;;33.40;91.30;;;;;;4998025;28;20229;-82
2023/06/20 12:08:55;;;;;;;8.68;7.88;;;33.60;91.60;;;;;;5008219;28;20197;-78
2023/06/20 12:11:22;;;;;;;8.82;7.93;;;33.70;91.90;;;;;;5002930;28;20198;-81
2023/06/20 12:13:49;;;;;;;8.90;7.60;;;33.80;90.60;;;;;;5007381;28;20225;-80
2023/06/20 12:16:15;;;;;;;8.52;7.72;;;33.90;91.30;;;;;;5005503;28;20715;-80
2023/06/20 12:18:44;;;;;;;8.80;7.97;;;33.90;90.70;;;;;;5002445;28;20209;-78
2023/06/20 12:21:11;;;;;;;9.05;8.13;;;33.90;90.00;;;;;;5007926;28;20200;-79
2023/06/20 12:23:37;;;;;;;8.70;8.00;;;33.80;90.90;;;;;;5003604;28;20201;-82
2023/06/20 12:26:04;;;;;;;8.90;8.00;;;33.60;90.60;;;;;;5006341;28;20519;-80
2023/06/20 12:28:32;;;;;;;8.57;7.82;;;33.50;91.80;;;;;;5006571;28;20791;-81
2023/06/20 12:30:59;;;;;;;8.18;7.47;;;33.40;91.30;;;;;;5008010;28;20208;-80
2023/06/20 12:33:26;;;;;;;8.45;7.53;;;33.30;91.00;;;;;;4997915;28;20339;-80
2023/06/20 12:35:54;;;;;;;8.75;7.47;;;33.10;91.30;;;;;;5001365;28;20189;-82
2023/06/20 12:38:21;;;;;;;9.73;7.30;;;33.10;91.10;;;;;;5010804;28;20240;-81
2023/06/20 12:40:48;;;;;;;8.07;6.88;;;32.70;90.80;;;;;;5000775;28;20205;-81
2023/06/20 12:43:14;;;;;;;8.32;7.50;;;32.60;92.00;;;;;;5011553;28;20263;-82
2023/06/20 12:45:41;;;;;;;9.25;7.95;;;32.60;92.10;;;;;;5008425;28;20699;-80
2023/06/20 12:48:08;;;;;;;9.05;7.63;;;32.70;92.20;;;;;;4997665;28;20671;-80
2023/06/20 12:50:35;;;;;;;8.10;7.10;;;32.80;92.00;;;;;;5006906;28;20211;-81
2023/06/20 12:53:03;;;;;;;8.05;7.00;;;32.80;92.10;;;;;;5004565;28;20254;-81